Time;durP1;ratioP1;P1;durP2;ratioP2;P2;SDS_P1;SDS_P2;PMS_P1;PMS_P2;Temp;Humidity;BMP_temperature;BMP_pressure;BME280_temperature;BME280_humidity;BME280_pressure;Samples;Min_cycle;Max_cycle;Signal;HPM_P1;HPM_P2
2023/05/29 00:00:05;;;;;;;5.67;4.27;;;15.20;99.90;;;;;;5002464;28;20876;-83
2023/05/29 00:02:32;;;;;;;5.10;3.57;;;14.80;1.00;;;;;;5002928;28;20430;-82
2023/05/29 00:05:02;;;;;;;6.43;3.87;;;15.20;99.90;;;;;;5003295;28;20539;-82
2023/05/29 00:07:30;;;;;;;6.10;4.00;;;15.10;99.90;;;;;;5009217;28;20477;-83
2023/05/29 00:09:56;;;;;;;4.67;4.03;;;15.20;99.90;;;;;;5000677;28;20476;-83
2023/05/29 00:12:23;;;;;;;11.93;4.37;;;15.10;99.90;;;;;;5004363;28;20536;-83
2023/05/29 00:14:50;;;;;;;8.90;4.30;;;15.10;99.90;;;;;;5001231;28;20472;-82
2023/05/29 00:17:20;;;;;;;5.43;3.90;;;15.10;99.90;;;;;;5009009;28;20500;-83
2023/05/29 00:19:47;;;;;;;5.90;4.33;;;15.00;99.90;;;;;;5013448;28;20528;-84
2023/05/29 00:22:14;;;;;;;7.40;4.47;;;14.90;99.90;;;;;;5013255;28;20476;-82
2023/05/29 00:24:40;;;;;;;9.87;4.07;;;14.80;99.90;;;;;;5015542;28;20447;-83
2023/05/29 00:27:08;;;;;;;6.43;5.23;;;14.80;99.90;;;;;;5006644;28;20491;-84
2023/05/29 00:29:35;;;;;;;11.40;4.70;;;14.80;99.90;;;;;;5007921;28;20460;-80
2023/05/29 00:32:02;;;;;;;4.30;3.90;;;14.70;99.90;;;;;;5016097;28;20457;-82
2023/05/29 00:34:30;;;;;;;7.23;4.57;;;14.70;99.90;;;;;;5005426;28;20448;-82
2023/05/29 00:36:58;;;;;;;7.50;4.50;;;14.70;99.90;;;;;;4999641;28;20449;-82
2023/05/29 00:39:25;;;;;;;8.50;4.10;;;14.60;99.90;;;;;;4999466;28;20476;-83
2023/05/29 00:41:51;;;;;;;8.93;4.57;;;14.70;99.90;;;;;;5001777;28;20464;-83
2023/05/29 00:44:18;;;;;;;5.37;4.30;;;14.80;99.90;;;;;;5000075;28;20535;-82
2023/05/29 00:46:46;;;;;;;6.50;3.70;;;14.80;99.90;;;;;;4999614;28;20480;-82
2023/05/29 00:49:13;;;;;;;7.47;4.10;;;14.70;99.90;;;;;;5000056;28;20477;-83
2023/05/29 00:51:43;;;;;;;11.10;4.07;;;14.80;99.90;;;;;;4999940;28;20455;-82
2023/05/29 00:54:13;;;;;;;9.30;3.90;;;14.70;99.90;;;;;;5004471;28;20942;-83
2023/05/29 00:56:42;;;;;;;10.67;4.70;;;14.70;99.90;;;;;;5009100;28;20460;-82
2023/05/29 00:59:10;;;;;;;7.70;4.17;;;14.60;99.90;;;;;;5008812;28;20507;-82
2023/05/29 01:01:37;;;;;;;5.43;3.47;;;14.60;99.90;;;;;;5006262;28;20536;-83
2023/05/29 01:04:06;;;;;;;5.30;4.10;;;14.60;99.90;;;;;;5014346;28;20441;-83
2023/05/29 01:06:33;;;;;;;5.80;3.90;;;14.60;99.90;;;;;;5010698;28;20994;-83
2023/05/29 01:09:01;;;;;;;10.33;4.93;;;14.60;99.90;;;;;;5007921;28;20545;-83
2023/05/29 01:11:46;;;;;;;7.67;4.77;;;14.50;99.90;;;;;;5003863;28;20441;-83
2023/05/29 01:14:35;;;;;;;5.33;3.63;;;14.50;99.90;;;;;;5003542;28;20434;-83
2023/05/29 01:17:11;;;;;;;7.40;4.47;;;14.50;99.90;;;;;;5002226;28;20815;-83
2023/05/29 01:20:04;;;;;;;8.07;4.33;;;14.50;99.90;;;;;;5001801;28;20476;-83
2023/05/29 01:22:42;;;;;;;8.63;4.47;;;14.50;99.90;;;;;;5001305;28;20445;-83
2023/05/29 01:25:20;;;;;;;7.80;4.90;;;14.50;99.90;;;;;;5001584;28;20447;-83
2023/05/29 01:27:50;;;;;;;7.17;3.70;;;14.60;99.90;;;;;;5001775;28;20473;-83
2023/05/29 01:30:17;;;;;;;5.23;4.33;;;14.50;99.90;;;;;;5001089;28;20489;-83
2023/05/29 01:32:45;;;;;;;9.80;4.67;;;14.50;99.90;;;;;;5002423;28;20479;-83
2023/05/29 01:35:12;;;;;;;6.33;3.40;;;14.50;99.90;;;;;;5001093;28;20444;-83
2023/05/29 01:37:39;;;;;;;9.90;3.67;;;14.50;1.00;;;;;;5000854;28;20954;-82
2023/05/29 01:40:07;;;;;;;7.50;4.47;;;14.40;99.90;;;;;;5000771;28;20459;-82
2023/05/29 01:42:34;;;;;;;8.47;4.50;;;14.40;99.90;;;;;;5000514;28;20448;-83
2023/05/29 01:45:03;;;;;;;17.13;8.63;;;14.40;99.90;;;;;;5000653;28;20459;-83
2023/05/29 01:47:31;;;;;;;6.67;3.83;;;14.40;99.90;;;;;;5000478;28;20495;-83
2023/05/29 01:49:58;;;;;;;8.03;3.93;;;14.40;99.90;;;;;;5002788;28;20480;-83
2023/05/29 01:52:25;;;;;;;5.73;3.60;;;14.30;99.90;;;;;;5003010;28;20449;-82
2023/05/29 01:54:52;;;;;;;4.03;3.57;;;14.30;99.90;;;;;;5001635;28;20451;-83
2023/05/29 01:57:20;;;;;;;7.20;4.50;;;14.30;99.90;;;;;;5001090;28;20452;-84
2023/05/29 01:59:47;;;;;;;4.83;3.97;;;14.30;99.90;;;;;;5004580;28;20480;-82
2023/05/29 02:02:15;;;;;;;5.80;3.77;;;14.20;99.90;;;;;;5004793;28;20456;-83
2023/05/29 02:04:42;;;;;;;5.73;3.90;;;14.20;99.90;;;;;;5010342;28;20512;-82
2023/05/29 02:07:11;;;;;;;7.23;4.43;;;14.20;99.90;;;;;;5005091;28;20868;-82
2023/05/29 02:09:39;;;;;;;5.00;3.80;;;14.20;99.90;;;;;;5004209;28;20527;-83
2023/05/29 02:12:07;;;;;;;5.37;4.03;;;14.10;99.90;;;;;;5004545;28;20491;-84
2023/05/29 02:14:33;;;;;;;7.47;4.87;;;14.10;99.90;;;;;;5018145;28;20453;-82
2023/05/29 02:17:01;;;;;;;7.80;3.83;;;14.10;99.90;;;;;;5012189;28;20438;-83
2023/05/29 02:19:29;;;;;;;5.63;3.80;;;14.00;99.90;;;;;;5005368;28;20523;-83
2023/05/29 02:21:56;;;;;;;7.53;4.00;;;14.00;99.90;;;;;;5005939;28;20449;-83
2023/05/29 02:24:23;;;;;;;7.57;4.10;;;14.10;99.90;;;;;;5005686;28;20455;-83
2023/05/29 02:26:51;;;;;;;6.03;3.60;;;14.00;99.90;;;;;;5005617;28;20477;-83
2023/05/29 02:29:18;;;;;;;5.50;4.97;;;14.00;99.90;;;;;;5004991;28;20472;-83
2023/05/29 02:31:45;;;;;;;7.83;4.53;;;14.00;99.90;;;;;;5005674;28;20543;-83
2023/05/29 02:34:12;;;;;;;5.87;4.00;;;14.00;99.90;;;;;;5012119;28;20454;-82
2023/05/29 02:36:40;;;;;;;8.17;4.60;;;13.90;99.90;;;;;;5005382;28;20451;-83
2023/05/29 02:39:07;;;;;;;6.13;4.17;;;13.90;99.90;;;;;;5008502;28;20465;-83
2023/05/29 02:41:33;;;;;;;8.73;5.00;;;13.90;99.90;;;;;;5006535;28;20448;-83
2023/05/29 02:44:00;;;;;;;5.00;4.03;;;13.80;99.90;;;;;;5002894;28;20935;-83
2023/05/29 02:46:27;;;;;;;8.17;4.33;;;13.80;99.90;;;;;;5003564;28;20456;-82
2023/05/29 02:48:54;;;;;;;7.90;5.03;;;13.80;99.90;;;;;;5017368;28;20485;-82
2023/05/29 02:51:20;;;;;;;6.23;4.30;;;13.80;99.90;;;;;;5011492;28;20539;-83
2023/05/29 02:53:49;;;;;;;7.63;4.63;;;13.80;99.90;;;;;;5004751;28;20484;-83
2023/05/29 02:56:16;;;;;;;6.20;4.10;;;13.80;99.90;;;;;;5004399;28;20448;-83
2023/05/29 02:58:43;;;;;;;6.83;4.17;;;13.80;99.90;;;;;;5003182;28;20491;-83
2023/05/29 03:01:10;;;;;;;6.17;4.80;;;13.90;99.90;;;;;;5003110;28;20459;-83
2023/05/29 03:03:37;;;;;;;7.67;4.50;;;13.80;99.90;;;;;;5003772;28;20452;-83
2023/05/29 03:06:04;;;;;;;11.30;4.63;;;13.70;99.90;;;;;;5005843;28;20947;-83
2023/05/29 03:08:33;;;;;;;7.37;4.60;;;13.60;99.90;;;;;;5006836;28;20572;-84
2023/05/29 03:11:02;;;;;;;7.60;5.10;;;13.70;99.90;;;;;;5014223;28;20866;-83
2023/05/29 03:13:29;;;;;;;7.10;4.43;;;13.60;99.90;;;;;;5006554;28;20742;-84
2023/05/29 03:15:56;;;;;;;8.37;6.40;;;13.60;99.90;;;;;;5003175;28;20480;-84
2023/05/29 03:18:23;;;;;;;9.50;5.03;;;13.60;99.90;;;;;;5002684;28;20479;-83
2023/05/29 03:20:50;;;;;;;10.53;4.90;;;13.60;99.90;;;;;;5003442;28;20477;-83
2023/05/29 03:23:17;;;;;;;6.87;4.27;;;13.60;99.90;;;;;;5003527;28;20535;-83
2023/05/29 03:25:44;;;;;;;8.20;5.60;;;13.60;99.90;;;;;;5002776;28;20455;-83
2023/05/29 03:28:12;;;;;;;11.67;4.90;;;13.60;99.90;;;;;;5002184;28;20489;-84
2023/05/29 03:30:39;;;;;;;9.53;4.90;;;13.60;99.90;;;;;;5002791;28;20455;-83
2023/05/29 03:33:06;;;;;;;6.03;4.97;;;13.50;99.90;;;;;;5017644;28;20439;-81
2023/05/29 03:35:33;;;;;;;5.50;4.70;;;13.50;1.00;;;;;;5017099;28;20455;-82
2023/05/29 03:38:01;;;;;;;14.10;4.80;;;13.60;99.90;;;;;;5007960;28;20460;-83
2023/05/29 03:40:27;;;;;;;6.00;5.30;;;13.50;99.90;;;;;;5004238;28;20531;-82
2023/05/29 03:42:54;;;;;;;8.77;5.67;;;13.50;99.90;;;;;;5003973;28;20521;-82
2023/05/29 03:45:22;;;;;;;9.90;4.70;;;13.50;1.00;;;;;;5002634;28;20453;-83
2023/05/29 03:47:49;;;;;;;10.20;4.70;;;14.00;1.00;;;;;;5002143;28;20480;-83
2023/05/29 03:50:16;;;;;;;8.90;5.03;;;13.60;99.90;;;;;;5004504;28;20449;-82
2023/05/29 03:52:43;;;;;;;7.67;4.70;;;13.50;99.90;;;;;;5007837;28;20449;-82
2023/05/29 03:55:12;;;;;;;13.90;4.50;;;13.40;99.90;;;;;;5003681;28;20457;-82
2023/05/29 03:57:40;;;;;;;7.03;4.20;;;13.50;1.00;;;;;;5004062;28;20507;-83
2023/05/29 04:00:09;;;;;;;8.47;5.13;;;13.40;99.90;;;;;;5004514;28;20465;-83
2023/05/29 04:02:38;;;;;;;6.40;4.17;;;13.40;99.90;;;;;;5003229;28;20499;-84
2023/05/29 04:05:06;;;;;;;7.83;4.93;;;13.50;99.90;;;;;;5006466;28;20536;-82
2023/05/29 04:07:33;;;;;;;8.17;4.70;;;13.50;99.90;;;;;;5004951;28;20511;-82
2023/05/29 04:09:59;;;;;;;5.90;4.10;;;13.40;99.90;;;;;;5005754;28;20473;-82
2023/05/29 04:12:26;;;;;;;12.77;8.00;;;13.40;99.90;;;;;;5004892;28;20449;-83
2023/05/29 04:14:53;;;;;;;9.10;5.60;;;13.40;1.00;;;;;;5004101;28;20540;-82
2023/05/29 04:17:20;;;;;;;7.63;4.43;;;13.50;99.90;;;;;;5006684;28;20449;-82
2023/05/29 04:19:48;;;;;;;5.67;5.10;;;13.60;99.90;;;;;;5003812;28;20469;-81
2023/05/29 04:22:15;;;;;;;7.67;4.40;;;13.60;99.90;;;;;;4998226;28;20457;-82
2023/05/29 04:24:42;;;;;;;5.53;4.70;;;13.60;99.90;;;;;;5006015;28;20955;-83
2023/05/29 04:27:12;;;;;;;21.00;5.60;;;13.60;99.90;;;;;;5007602;28;20514;-83
2023/05/29 04:29:40;;;;;;;5.30;3.83;;;13.70;99.90;;;;;;5000915;28;20481;-83
2023/05/29 04:32:08;;;;;;;9.70;5.10;;;13.70;99.90;;;;;;5002523;28;20476;-82
2023/05/29 04:34:35;;;;;;;6.20;3.50;;;13.80;99.90;;;;;;5011618;28;20511;-82
2023/05/29 04:37:03;;;;;;;6.50;3.90;;;14.00;99.90;;;;;;5010298;28;20449;-83
2023/05/29 04:39:31;;;;;;;6.30;3.80;;;14.00;99.90;;;;;;5005110;28;20531;-82
2023/05/29 04:41:58;;;;;;;4.97;4.43;;;14.10;99.90;;;;;;5003949;28;20456;-83
2023/05/29 04:44:26;;;;;;;5.53;3.80;;;14.30;1.00;;;;;;5002351;28;20824;-82
2023/05/29 04:46:53;;;;;;;4.70;3.60;;;14.30;99.90;;;;;;5005235;28;20476;-82
2023/05/29 04:49:20;;;;;;;5.60;4.40;;;14.30;99.90;;;;;;5011420;28;20520;-82
2023/05/29 04:51:47;;;;;;;4.90;3.33;;;14.20;99.90;;;;;;5005252;28;20514;-82
2023/05/29 04:54:16;;;;;;;7.60;3.60;;;14.40;99.90;;;;;;5014748;28;20448;-82
2023/05/29 04:56:43;;;;;;;7.10;3.93;;;14.40;99.90;;;;;;5011071;28;20488;-82
2023/05/29 04:59:10;;;;;;;4.93;3.67;;;14.40;99.90;;;;;;5006593;28;20480;-83
2023/05/29 05:01:36;;;;;;;4.97;3.20;;;14.40;99.90;;;;;;5008224;28;20525;-82
2023/05/29 05:04:03;;;;;;;4.60;3.83;;;14.50;99.90;;;;;;5006342;28;20485;-81
2023/05/29 05:06:30;;;;;;;4.03;2.90;;;14.50;99.90;;;;;;5006103;28;20461;-81
2023/05/29 05:08:57;;;;;;;7.03;4.13;;;14.50;99.90;;;;;;5012036;28;20556;-82
2023/05/29 05:11:25;;;;;;;4.63;3.47;;;14.60;99.90;;;;;;5012681;28;20916;-84
2023/05/29 05:13:52;;;;;;;6.40;3.77;;;14.70;99.90;;;;;;5003981;28;20444;-82
2023/05/29 05:16:19;;;;;;;5.43;4.07;;;14.70;99.90;;;;;;5005858;28;20880;-83
2023/05/29 05:18:46;;;;;;;5.57;3.43;;;14.70;99.90;;;;;;5001039;28;20465;-83
2023/05/29 05:21:13;;;;;;;4.53;3.43;;;14.60;99.90;;;;;;5003409;28;20461;-83
2023/05/29 05:23:41;;;;;;;4.57;3.27;;;14.70;99.90;;;;;;5001749;28;20630;-83
2023/05/29 05:26:08;;;;;;;7.40;3.63;;;14.90;99.90;;;;;;5001307;28;20545;-83
2023/05/29 05:28:36;;;;;;;3.83;3.40;;;14.80;99.90;;;;;;5002018;28;20488;-82
2023/05/29 05:31:03;;;;;;;5.30;3.63;;;14.90;99.90;;;;;;5002060;28;21015;-83
2023/05/29 05:33:29;;;;;;;4.57;3.30;;;14.90;99.90;;;;;;5001142;28;20453;-83
2023/05/29 05:35:56;;;;;;;3.80;3.40;;;15.10;99.90;;;;;;5000906;28;20441;-83
2023/05/29 05:38:23;;;;;;;4.90;3.20;;;15.10;99.90;;;;;;5000392;28;20899;-83
2023/05/29 05:40:50;;;;;;;4.90;3.10;;;15.00;1.00;;;;;;5000767;28;20453;-83
2023/05/29 05:43:17;;;;;;;5.93;3.40;;;15.10;99.90;;;;;;4999824;28;21022;-83
2023/05/29 05:45:45;;;;;;;4.23;3.03;;;15.30;99.90;;;;;;5000153;28;20823;-83
2023/05/29 05:48:13;;;;;;;5.13;3.07;;;15.20;99.90;;;;;;4999447;28;20484;-83
2023/05/29 05:50:39;;;;;;;3.57;2.80;;;15.20;99.90;;;;;;5000211;28;20461;-83
2023/05/29 05:53:06;;;;;;;3.77;3.10;;;15.30;99.90;;;;;;4999743;28;20989;-82
2023/05/29 05:55:33;;;;;;;3.27;2.37;;;15.50;99.90;;;;;;5000426;28;20816;-82
2023/05/29 05:58:00;;;;;;;3.03;2.47;;;15.70;99.90;;;;;;4999593;28;20488;-83
2023/05/29 06:00:27;;;;;;;3.60;3.30;;;15.60;99.90;;;;;;5000345;28;20455;-84
2023/05/29 06:02:56;;;;;;;4.93;3.00;;;15.50;99.90;;;;;;5000316;28;20507;-83
2023/05/29 06:05:23;;;;;;;2.90;2.70;;;14.90;1.00;;;;;;4999653;28;20977;-83
2023/05/29 06:07:50;;;;;;;3.80;2.80;;;15.70;1.00;;;;;;4999951;28;20711;-83
2023/05/29 06:10:17;;;;;;;3.33;2.83;;;15.70;99.90;;;;;;4999524;28;20448;-81
2023/05/29 06:12:43;;;;;;;4.53;2.80;;;15.70;99.90;;;;;;5006568;28;20456;-82
2023/05/29 06:15:11;;;;;;;6.03;4.10;;;15.70;99.90;;;;;;5000872;28;20940;-82
2023/05/29 06:17:39;;;;;;;2.60;2.37;;;15.70;99.90;;;;;;4997929;28;20448;-81
2023/05/29 06:20:10;;;;;;;4.07;2.97;;;16.00;99.90;;;;;;5002924;28;20523;-83
2023/05/29 06:22:37;;;;;;;3.30;2.60;;;16.00;99.90;;;;;;5000662;28;20986;-83
2023/05/29 06:25:04;;;;;;;3.40;2.60;;;16.10;99.90;;;;;;5000478;28;20535;-82
2023/05/29 06:27:31;;;;;;;7.20;3.37;;;16.10;1.00;;;;;;5002214;28;20536;-82
2023/05/29 06:29:58;;;;;;;2.47;2.37;;;16.30;99.90;;;;;;5005967;28;20515;-83
2023/05/29 06:32:25;;;;;;;3.00;2.80;;;16.30;99.90;;;;;;5002119;28;20467;-82
2023/05/29 06:34:52;;;;;;;4.63;2.70;;;16.30;99.90;;;;;;5002123;28;20452;-83
2023/05/29 06:37:20;;;;;;;5.80;3.20;;;16.30;99.90;;;;;;5001424;28;20516;-81
2023/05/29 06:39:47;;;;;;;4.90;3.40;;;16.40;99.90;;;;;;5000928;28;20472;-83
2023/05/29 06:42:14;;;;;;;4.07;3.10;;;16.30;99.90;;;;;;5000727;28;20850;-83
2023/05/29 06:44:41;;;;;;;8.50;2.20;;;16.30;99.90;;;;;;5002369;28;20543;-83
2023/05/29 06:47:10;;;;;;;6.23;2.40;;;16.40;99.90;;;;;;5004064;28;20483;-84
2023/05/29 06:49:37;;;;;;;4.80;3.40;;;16.50;99.90;;;;;;5004267;28;20488;-83
2023/05/29 06:52:04;;;;;;;5.07;2.47;;;16.50;99.90;;;;;;5004545;28;20535;-83
2023/05/29 06:54:32;;;;;;;3.33;3.13;;;16.50;99.90;;;;;;5004884;28;20544;-83
2023/05/29 06:56:59;;;;;;;2.40;2.20;;;16.60;99.90;;;;;;5011680;28;20452;-83
2023/05/29 06:59:25;;;;;;;3.20;2.77;;;16.70;99.90;;;;;;5015142;28;20477;-83
2023/05/29 07:01:52;;;;;;;3.23;2.93;;;16.80;99.90;;;;;;5008749;28;21003;-83
2023/05/29 07:04:19;;;;;;;3.43;2.50;;;16.80;99.90;;;;;;5002872;28;20453;-84
2023/05/29 07:06:46;;;;;;;5.80;2.37;;;16.90;99.90;;;;;;5002963;28;20458;-82
2023/05/29 07:09:13;;;;;;;3.33;2.90;;;16.90;99.90;;;;;;5007705;28;20515;-82
2023/05/29 07:11:41;;;;;;;3.13;2.50;;;16.90;99.90;;;;;;5017981;28;20501;-82
2023/05/29 07:14:08;;;;;;;2.83;2.50;;;16.90;99.90;;;;;;5020239;28;20468;-82
2023/05/29 07:16:34;;;;;;;3.50;2.60;;;17.10;99.90;;;;;;5009953;28;20512;-83
2023/05/29 07:19:01;;;;;;;4.47;3.20;;;17.20;99.90;;;;;;5007811;28;20465;-83
2023/05/29 07:21:28;;;;;;;4.60;3.00;;;17.20;99.90;;;;;;5007657;28;20520;-82
2023/05/29 07:23:55;;;;;;;8.57;4.00;;;17.30;99.90;;;;;;5015828;28;20491;-83
2023/05/29 07:26:22;;;;;;;3.70;2.50;;;17.40;99.90;;;;;;5013358;28;20504;-83
2023/05/29 07:28:50;;;;;;;3.67;2.57;;;17.40;99.90;;;;;;5006822;28;20548;-83
2023/05/29 07:31:17;;;;;;;5.80;2.73;;;17.50;99.90;;;;;;5004161;28;20967;-81
2023/05/29 07:33:44;;;;;;;3.63;2.50;;;17.50;99.90;;;;;;5009931;28;20505;-81
2023/05/29 07:36:12;;;;;;;2.50;2.23;;;17.60;99.90;;;;;;5017187;28;20473;-82
2023/05/29 07:38:39;;;;;;;4.40;2.73;;;17.50;99.90;;;;;;5012575;28;20469;-83
2023/05/29 07:41:06;;;;;;;4.43;3.47;;;17.50;99.90;;;;;;5002712;28;20460;-83
2023/05/29 07:43:32;;;;;;;3.00;2.13;;;17.40;99.90;;;;;;5002895;28;20481;-83
2023/05/29 07:46:01;;;;;;;5.00;2.53;;;17.40;99.90;;;;;;5002978;28;20475;-83
2023/05/29 07:48:27;;;;;;;2.20;2.00;;;17.60;99.90;;;;;;5002705;28;20484;-84
2023/05/29 07:50:54;;;;;;;3.10;2.77;;;17.60;99.90;;;;;;5003463;28;20449;-83
2023/05/29 07:53:21;;;;;;;2.87;2.30;;;17.70;99.90;;;;;;5003551;28;20449;-83
2023/05/29 07:55:48;;;;;;;2.80;2.60;;;17.60;1.00;;;;;;5003058;28;20898;-83
2023/05/29 07:58:16;;;;;;;4.10;2.43;;;17.90;99.90;;;;;;5003256;28;20559;-82
2023/05/29 08:00:44;;;;;;;3.97;2.73;;;17.90;99.90;;;;;;5003015;28;20459;-83
2023/05/29 08:03:12;;;;;;;5.47;2.70;;;18.10;99.90;;;;;;5002617;28;20453;-83
2023/05/29 08:05:39;;;;;;;2.93;2.30;;;18.50;99.90;;;;;;5003220;28;20478;-84
2023/05/29 08:08:06;;;;;;;2.87;2.57;;;18.20;99.90;;;;;;4999364;28;20492;-83
2023/05/29 08:10:33;;;;;;;2.30;2.10;;;18.00;1.00;;;;;;4999410;28;20871;-82
2023/05/29 08:13:00;;;;;;;2.13;1.80;;;18.00;99.90;;;;;;5001803;28;20532;-83
2023/05/29 08:15:26;;;;;;;5.20;3.37;;;18.60;99.90;;;;;;5002254;28;20449;-84
2023/05/29 08:17:53;;;;;;;6.83;2.57;;;18.00;1.00;;;;;;5002405;28;20444;-82
2023/05/29 08:20:21;;;;;;;5.00;2.13;;;18.30;99.90;;;;;;5003523;28;20449;-84
2023/05/29 08:22:48;;;;;;;3.70;2.37;;;18.50;99.90;;;;;;5002802;28;20516;-83
2023/05/29 08:25:15;;;;;;;4.27;2.80;;;18.40;99.90;;;;;;5009412;28;20445;-82
2023/05/29 08:27:42;;;;;;;2.63;2.43;;;18.30;1.00;;;;;;5003136;28;20519;-82
2023/05/29 08:30:09;;;;;;;8.37;3.00;;;18.40;99.90;;;;;;5003826;28;20484;-82
2023/05/29 08:32:36;;;;;;;8.60;3.00;;;18.10;99.90;;;;;;5003462;28;20448;-82
2023/05/29 08:35:04;;;;;;;3.00;2.80;;;18.00;99.90;;;;;;5002839;28;20462;-84
2023/05/29 08:37:32;;;;;;;3.57;2.30;;;18.20;99.90;;;;;;5003632;28;20581;-82
2023/05/29 08:39:59;;;;;;;4.23;2.70;;;18.30;99.90;;;;;;5003643;28;20472;-83
2023/05/29 08:42:33;;;;;;;3.17;2.60;;;18.40;99.90;;;;;;5002998;28;20526;-84
2023/05/29 08:45:03;;;;;;;3.00;2.67;;;18.50;99.90;;;;;;5002814;28;20783;-83
2023/05/29 08:47:34;;;;;;;3.60;3.00;;;18.60;99.90;;;;;;5002654;28;20443;-83
2023/05/29 08:50:02;;;;;;;2.60;2.40;;;18.60;99.90;;;;;;5006315;28;20579;-82
2023/05/29 08:52:36;;;;;;;5.77;2.93;;;18.60;99.90;;;;;;5003691;28;20481;-83
2023/05/29 08:55:03;;;;;;;6.67;3.40;;;18.50;99.90;;;;;;5000656;28;20426;-83
2023/05/29 08:57:30;;;;;;;5.57;2.40;;;18.50;99.90;;;;;;5000804;28;20947;-83
2023/05/29 08:59:59;;;;;;;3.10;2.67;;;18.50;99.90;;;;;;5052871;23;20563;-88
2023/05/29 09:02:27;;;;;;;3.67;2.63;;;18.50;99.90;;;;;;5008062;28;20461;-86
2023/05/29 09:04:54;;;;;;;3.27;2.87;;;18.50;99.90;;;;;;5003778;28;20451;-88
2023/05/29 09:07:22;;;;;;;4.53;3.10;;;18.80;99.90;;;;;;4999420;28;20829;-88
2023/05/29 09:09:50;;;;;;;2.87;2.60;;;18.70;99.90;;;;;;5000698;28;20995;-87
2023/05/29 09:12:18;;;;;;;6.40;2.80;;;18.70;1.00;;;;;;5001097;28;20468;-87
2023/05/29 09:14:46;;;;;;;3.20;2.90;;;19.10;99.90;;;;;;5003211;28;20453;-88
2023/05/29 09:17:15;;;;;;;4.53;3.10;;;19.00;99.90;;;;;;5002436;28;20459;-87
2023/05/29 09:19:42;;;;;;;2.73;2.47;;;19.00;99.90;;;;;;5003180;28;20480;-87
2023/05/29 09:22:13;;;;;;;4.70;3.00;;;19.50;1.00;;;;;;5001792;28;20488;-88
2023/05/29 09:24:43;;;;;;;2.90;2.70;;;19.10;99.90;;;;;;5001845;28;20440;-87
2023/05/29 09:27:12;;;;;;;6.70;3.43;;;19.20;99.90;;;;;;5007648;28;20449;-88
2023/05/29 09:29:40;;;;;;;6.10;3.13;;;18.80;1.00;;;;;;5002239;28;20484;-86
2023/05/29 09:32:09;;;;;;;6.27;3.80;;;19.50;1.00;;;;;;5001614;28;20449;-87
2023/05/29 09:34:36;;;;;;;6.77;2.90;;;19.40;99.90;;;;;;5001463;28;20559;-86
2023/05/29 09:37:08;;;;;;;5.33;3.87;;;19.30;99.90;;;;;;5002795;28;20452;-87
2023/05/29 09:39:45;;;;;;;4.20;3.00;;;19.40;99.90;;;;;;5016713;28;20449;-86
2023/05/29 09:42:14;;;;;;;4.33;3.10;;;19.40;1.00;;;;;;5018922;28;20417;-87
2023/05/29 09:44:41;;;;;;;3.57;3.27;;;19.50;99.90;;;;;;5018707;28;20428;-86
2023/05/29 09:47:08;;;;;;;5.10;2.80;;;19.10;1.00;;;;;;5018510;28;20429;-86
2023/05/29 09:49:38;;;;;;;3.60;3.13;;;;;;;;;;5018323;28;20489;-87
2023/05/29 09:52:07;;;;;;;3.77;2.73;;;19.70;99.90;;;;;;5018377;28;20495;-87
2023/05/29 09:54:37;;;;;;;5.63;3.57;;;19.90;99.90;;;;;;5007530;28;20449;-87
2023/05/29 09:57:06;;;;;;;3.47;3.17;;;19.90;99.90;;;;;;5003617;28;20515;-86
2023/05/29 09:59:36;;;;;;;6.27;3.83;;;19.80;99.90;;;;;;5003677;28;20480;-88
2023/05/29 10:02:04;;;;;;;6.07;3.23;;;20.20;1.00;;;;;;5002338;28;20523;-87
2023/05/29 10:04:33;;;;;;;4.00;2.87;;;19.70;99.90;;;;;;5000485;28;20452;-88
2023/05/29 10:07:05;;;;;;;4.40;3.73;;;19.60;99.90;;;;;;5002748;28;20528;-86
2023/05/29 10:09:34;;;;;;;3.40;3.10;;;19.60;99.90;;;;;;5001962;28;20484;-87
2023/05/29 10:12:03;;;;;;;3.47;3.13;;;;;;;;;;5000752;28;20449;-88
2023/05/29 10:14:33;;;;;;;5.60;3.87;;;19.40;99.90;;;;;;5004097;28;20453;-87
2023/05/29 10:17:08;;;;;;;7.53;3.50;;;19.50;99.90;;;;;;5006009;28;20456;-87
2023/05/29 10:19:38;;;;;;;4.00;3.10;;;19.60;99.90;;;;;;5019938;28;20452;-87
2023/05/29 10:22:07;;;;;;;3.10;2.90;;;20.00;99.90;;;;;;5022404;28;20456;-87
2023/05/29 10:24:39;;;;;;;3.70;3.40;;;19.70;99.90;;;;;;5020338;28;20444;-87
2023/05/29 10:27:06;;;;;;;4.73;3.33;;;19.80;99.90;;;;;;5013228;28;20500;-86
2023/05/29 10:29:38;;;;;;;3.50;2.83;;;19.40;1.00;;;;;;5013151;28;20534;-87
2023/05/29 10:32:22;;;;;;;2.83;2.63;;;19.70;99.90;;;;;;5020440;28;20468;-86
2023/05/29 10:34:57;;;;;;;4.83;3.30;;;19.30;99.90;;;;;;5021698;28;20432;-88
2023/05/29 10:37:35;;;;;;;6.20;3.80;;;19.70;99.90;;;;;;5021845;28;20447;-87
2023/05/29 10:40:08;;;;;;;5.00;3.37;;;19.70;99.90;;;;;;5016017;28;20500;-87
2023/05/29 10:42:47;;;;;;;6.80;3.07;;;19.50;1.00;;;;;;5014362;28;20495;-87
2023/05/29 10:45:52;;;;;;;4.70;2.97;;;19.60;99.90;;;;;;5017352;28;20448;-89
2023/05/29 10:48:41;;;;;;;4.23;3.60;;;19.40;99.90;;;;;;5017668;28;20475;-88
2023/05/29 10:51:09;;;;;;;3.00;2.70;;;19.30;99.90;;;;;;5013883;28;20477;-89
2023/05/29 10:53:40;;;;;;;5.60;3.27;;;;;;;;;;5009597;28;20449;-87
2023/05/29 10:56:15;;;;;;;4.80;4.40;;;19.60;99.90;;;;;;5009969;28;20436;-87
2023/05/29 10:58:42;;;;;;;6.00;3.67;;;19.80;99.90;;;;;;5010850;28;20484;-87
2023/05/29 11:01:09;;;;;;;4.93;4.47;;;19.90;99.90;;;;;;5011961;28;20433;-89
2023/05/29 11:03:37;;;;;;;6.50;5.03;;;20.20;99.90;;;;;;5017911;28;20433;-89
2023/05/29 11:06:19;;;;;;;5.50;3.70;;;20.50;99.90;;;;;;5018466;28;20444;-88
2023/05/29 11:08:48;;;;;;;3.90;3.60;;;20.40;99.90;;;;;;5016192;28;20477;-88
2023/05/29 11:11:15;;;;;;;7.23;2.93;;;20.40;99.90;;;;;;5005176;28;20564;-88
2023/05/29 11:13:52;;;;;;;3.50;3.20;;;19.70;99.90;;;;;;5003562;28;20448;-88
2023/05/29 11:16:36;;;;;;;4.47;3.30;;;20.00;99.90;;;;;;5004228;28;20460;-87
2023/05/29 11:19:05;;;;;;;3.30;3.00;;;20.00;99.90;;;;;;5003811;28;20469;-87
2023/05/29 11:21:40;;;;;;;3.07;2.57;;;19.90;99.90;;;;;;5004775;28;20943;-88
2023/05/29 11:24:07;;;;;;;8.83;4.97;;;20.10;99.90;;;;;;5004488;28;20445;-88
2023/05/29 11:26:37;;;;;;;3.67;2.73;;;20.20;99.90;;;;;;5002803;28;20445;-88
2023/05/29 11:29:05;;;;;;;5.43;3.67;;;20.30;99.90;;;;;;5004405;28;20464;-88
2023/05/29 11:31:34;;;;;;;3.50;2.87;;;20.60;99.90;;;;;;5015363;28;20517;-88
2023/05/29 11:34:05;;;;;;;4.83;3.30;;;20.60;99.90;;;;;;5014202;28;20480;-87
2023/05/29 11:36:34;;;;;;;5.10;4.37;;;20.70;99.90;;;;;;5012907;28;20451;-87
2023/05/29 11:39:03;;;;;;;6.50;3.27;;;21.00;1.00;;;;;;5012648;28;20456;-87
2023/05/29 11:41:30;;;;;;;3.50;2.90;;;20.70;99.90;;;;;;5016758;28;20456;-87
2023/05/29 11:43:59;;;;;;;5.27;3.00;;;20.90;99.90;;;;;;5014143;28;20472;-87
2023/05/29 11:46:28;;;;;;;3.83;3.50;;;;;;;;;;5014816;28;20449;-87
2023/05/29 11:48:55;;;;;;;3.30;2.50;;;;;;;;;;5014996;28;20469;-87
2023/05/29 11:51:22;;;;;;;8.23;3.37;;;;;;;;;;5011611;28;20496;-89
2023/05/29 11:53:57;;;;;;;3.20;2.83;;;21.10;99.90;;;;;;5004831;28;20437;-88
2023/05/29 11:56:25;;;;;;;4.60;3.07;;;21.10;99.90;;;;;;5003354;28;20436;-88
2023/05/29 11:58:55;;;;;;;3.00;2.70;;;21.00;99.90;;;;;;5004196;28;20854;-88
2023/05/29 12:01:23;;;;;;;3.33;2.97;;;;;;;;;;5003218;28;20453;-87
2023/05/29 12:03:50;;;;;;;3.47;2.97;;;21.00;99.90;;;;;;5002485;28;20490;-87
2023/05/29 12:06:31;;;;;;;3.97;3.00;;;21.10;99.90;;;;;;5002020;28;20449;-86
2023/05/29 12:09:00;;;;;;;4.70;2.83;;;21.00;99.90;;;;;;5011358;28;20482;-87
2023/05/29 12:11:28;;;;;;;3.83;2.70;;;;;;;;;;5002010;28;20484;-87
2023/05/29 12:13:59;;;;;;;5.33;3.30;;;20.70;99.90;;;;;;5001747;28;20452;-88
2023/05/29 12:16:27;;;;;;;4.37;3.10;;;20.50;1.00;;;;;;5001063;28;20517;-88
2023/05/29 12:18:55;;;;;;;8.30;2.73;;;21.00;99.90;;;;;;5001000;28;20658;-88
2023/05/29 12:21:27;;;;;;;4.37;3.17;;;20.90;99.90;;;;;;5000692;28;20437;-87
2023/05/29 12:23:55;;;;;;;3.13;2.63;;;20.60;99.90;;;;;;5001268;28;20499;-88
2023/05/29 12:26:25;;;;;;;5.90;3.20;;;20.50;99.90;;;;;;5000169;28;21000;-87
2023/05/29 12:28:53;;;;;;;9.00;3.20;;;20.40;99.90;;;;;;5004513;28;20503;-88
2023/05/29 12:31:29;;;;;;;5.47;3.27;;;20.40;99.90;;;;;;5000779;28;20569;-88
2023/05/29 12:34:01;;;;;;;4.37;3.10;;;20.40;99.90;;;;;;5001107;28;20970;-87
2023/05/29 12:36:28;;;;;;;4.47;3.17;;;20.90;1.00;;;;;;5000808;28;20437;-87
2023/05/29 12:38:57;;;;;;;3.30;2.93;;;20.30;1.00;;;;;;5004427;28;20477;-88
2023/05/29 12:41:29;;;;;;;4.83;3.37;;;20.70;99.90;;;;;;5002809;28;20441;-88
2023/05/29 12:43:59;;;;;;;3.80;3.07;;;21.20;1.00;;;;;;5002405;28;20437;-87
2023/05/29 12:46:27;;;;;;;3.93;3.20;;;;;;;;;;5007493;28;20464;-88
2023/05/29 12:48:56;;;;;;;6.50;3.60;;;21.50;1.00;;;;;;5000930;28;20549;-88
2023/05/29 12:51:26;;;;;;;4.43;3.03;;;21.50;99.90;;;;;;5002831;28;20486;-88
2023/05/29 12:53:54;;;;;;;4.43;2.80;;;21.60;99.90;;;;;;5002322;28;20468;-88
2023/05/29 12:56:23;;;;;;;6.37;3.37;;;21.20;1.00;;;;;;5002881;28;20583;-88